This is the latest recevied weather packets stored in our database for station/object KC3QLX. If no packets are shown the sender has not sent any weather packets the latest 10 day(s).
| Time | Temp. | Humidity | Pressure | Rain* | Wind** | Luminosity | Snow |
|---|---|---|---|---|---|---|---|
| 1777844458 | 16.11° C | 36% | 1011.1 hPa | 0 mm | - | 259 W/m² | - |
| 1777844157 | 15.56° C | 38% | 1011 hPa | 0 mm | - | 308 W/m² | - |
| 1777843853 | 15° C | 36% | 1011.2 hPa | 0 mm | - | 317 W/m² | - |
| 1777843550 | 15.56° C | 35% | 1011.1 hPa | 0 mm | - | 359 W/m² | - |
| 1777843248 | 15° C | 37% | 1011.2 hPa | 0 mm | - | 401 W/m² | - |
| 1777842945 | 15° C | 39% | 1010.9 hPa | 0 mm | - | 163 W/m² | - |
| 1777842640 | 14.44° C | 38% | 1010.9 hPa | 0 mm | - | 409 W/m² | - |
| 1777842337 | 15° C | 37% | 1011 hPa | 0 mm | - | 102 W/m² | - |
| 1777842033 | 15.56° C | 36% | 1011 hPa | 0 mm | - | 135 W/m² | - |
| 1777841730 | 14.44° C | 37% | 1011.1 hPa | 0 mm | - | 478 W/m² | - |
| 1777841426 | 15° C | 36% | 1011 hPa | 0 mm | - | 408 W/m² | - |
| 1777841123 | 15.56° C | 36% | 1011.1 hPa | 0 mm | - | 152 W/m² | - |
| 1777840820 | 15° C | 37% | 1011.1 hPa | 0 mm | - | 182 W/m² | - |
| 1777840518 | 15.56° C | 34% | 1011.1 hPa | 0 mm | - | 115 W/m² | - |
| 1777840215 | 15.56° C | 36% | 1011.1 hPa | 0 mm | - | 482 W/m² | - |
| 1777839912 | 15° C | 37% | 1011.1 hPa | 0 mm | - | 545 W/m² | - |
| 1777839610 | 15.56° C | 34% | 1011.1 hPa | 0 mm | - | 181 W/m² | - |
| 1777839308 | 15° C | 36% | 1011.2 hPa | 0 mm | - | 545 W/m² | - |
| 1777839005 | 15° C | 35% | 1011.3 hPa | 0 mm | - | 530 W/m² | - |
| 1777838701 | 14.44° C | 38% | 1011.4 hPa | 0 mm | - | 127 W/m² | - |
| 1777838397 | 13.89° C | 37% | 1011.5 hPa | 0 mm | - | 183 W/m² | - |
| 1777838095 | 14.44° C | 37% | 1011.4 hPa | 0 mm | - | 148 W/m² | - |
| 1777837791 | 15° C | 37% | 1011.7 hPa | 0 mm | - | 579 W/m² | - |
| 1777837489 | 15° C | 36% | 1011.7 hPa | 0 mm | - | 174 W/m² | - |
| 1777837184 | 15.56° C | 35% | 1011.8 hPa | 0 mm | - | 157 W/m² | - |
* Rain latest hour (hover to see other rain measurements)
** Current wind speed in m/s (hover to see current wind gust speed)